createdAt,value
2022-11-09T00:01:29.991Z,9.30
2022-11-09T00:03:59.869Z,9.40
2022-11-09T00:06:29.139Z,9.40
2022-11-09T00:09:01.319Z,9.50
2022-11-09T00:11:32.406Z,9.50
2022-11-09T00:14:01.895Z,9.50
2022-11-09T00:16:30.015Z,9.50
2022-11-09T00:18:58.172Z,9.50
2022-11-09T00:21:26.916Z,9.50
2022-11-09T00:23:55.840Z,9.50
2022-11-09T00:26:24.601Z,9.50
2022-11-09T00:28:53.118Z,9.50
2022-11-09T00:31:24.911Z,9.60
2022-11-09T00:33:56.400Z,9.60
2022-11-09T00:36:27.056Z,9.60
2022-11-09T00:38:58.048Z,9.70
2022-11-09T00:41:27.295Z,9.70
2022-11-09T00:43:56.922Z,9.70
2022-11-09T00:46:27.392Z,9.80
2022-11-09T00:48:56.803Z,9.80
2022-11-09T00:51:25.310Z,9.80
2022-11-09T00:53:54.787Z,9.80
2022-11-09T00:56:23.308Z,9.80
2022-11-09T00:58:55.586Z,9.80
2022-11-09T01:01:24.248Z,9.80
2022-11-09T01:03:53.829Z,9.80
2022-11-09T01:06:24.262Z,9.80
2022-11-09T01:08:53.598Z,9.80
2022-11-09T01:11:23.539Z,9.80
2022-11-09T01:13:54.727Z,9.90
2022-11-09T01:16:25.032Z,9.90
2022-11-09T01:18:56.593Z,9.90
2022-11-09T01:21:27.269Z,9.90
2022-11-09T01:23:58.249Z,9.90
2022-11-09T01:26:29.123Z,9.90
2022-11-09T01:28:58.098Z,9.90
2022-11-09T01:31:26.932Z,9.90
2022-11-09T01:33:56.585Z,10.00
2022-11-09T01:36:26.391Z,10.00
2022-11-09T01:38:54.749Z,10.00
2022-11-09T01:41:26.129Z,10.10
2022-11-09T01:44:06.744Z,10.10
2022-11-09T01:46:42.436Z,10.20
2022-11-09T01:49:20.133Z,10.20
2022-11-09T01:51:54.400Z,10.20
2022-11-09T01:54:28.142Z,10.10
2022-11-09T01:57:03.162Z,10.20
2022-11-09T01:59:37.712Z,10.10
2022-11-09T02:02:07.137Z,10.20
2022-11-09T02:04:48.780Z,10.20
2022-11-09T02:07:17.565Z,10.20
2022-11-09T02:09:52.598Z,10.20
2022-11-09T02:12:21.556Z,10.30
2022-11-09T02:14:52.148Z,10.30
2022-11-09T02:17:20.985Z,10.30
2022-11-09T02:19:52.233Z,10.30
2022-11-09T02:22:22.665Z,10.20
2022-11-09T02:24:55.238Z,10.20
2022-11-09T02:27:24.440Z,10.20
2022-11-09T02:29:54.228Z,10.20
2022-11-09T02:32:29.452Z,10.20
2022-11-09T02:34:59.256Z,10.20
2022-11-09T02:37:31.886Z,10.20
2022-11-09T02:40:02.580Z,10.20
2022-11-09T02:42:32.698Z,10.20
2022-11-09T02:45:01.354Z,10.20
2022-11-09T02:47:30.003Z,10.20
2022-11-09T02:49:58.361Z,10.20
2022-11-09T02:52:29.392Z,10.20
2022-11-09T02:54:57.929Z,10.20
2022-11-09T02:57:26.079Z,10.30
2022-11-09T02:59:54.224Z,10.30
2022-11-09T03:02:22.443Z,10.30
2022-11-09T03:04:50.598Z,10.30
2022-11-09T03:07:19.181Z,10.40
2022-11-09T03:09:49.363Z,10.40
2022-11-09T03:12:31.446Z,10.40
2022-11-09T03:15:12.503Z,10.40
2022-11-09T03:17:45.138Z,10.40
2022-11-09T03:20:13.375Z,10.50
2022-11-09T03:22:42.789Z,10.60
2022-11-09T03:25:12.649Z,10.60
2022-11-09T03:27:40.894Z,10.60
2022-11-09T03:30:11.383Z,10.70
2022-11-09T03:32:40.129Z,10.70
2022-11-09T03:35:09.856Z,10.80
2022-11-09T03:37:38.266Z,10.80
2022-11-09T03:40:08.327Z,10.90
2022-11-09T03:42:38.188Z,10.90
2022-11-09T03:45:09.200Z,10.90
2022-11-09T03:47:37.345Z,10.80
2022-11-09T03:50:06.084Z,10.80
2022-11-09T03:52:35.825Z,10.80
2022-11-09T03:55:04.359Z,10.80
2022-11-09T03:57:32.493Z,10.80
2022-11-09T04:00:01.922Z,10.80
2022-11-09T04:02:39.672Z,10.90
2022-11-09T04:05:09.922Z,10.90
2022-11-09T04:07:38.126Z,10.90
2022-11-09T04:10:08.004Z,10.90
2022-11-09T04:12:36.095Z,10.90
2022-11-09T04:15:06.902Z,10.80
2022-11-09T04:17:35.037Z,10.80
2022-11-09T04:20:03.176Z,10.80
2022-11-09T04:22:31.300Z,10.70
2022-11-09T04:24:59.395Z,10.70
2022-11-09T04:27:29.798Z,10.70
2022-11-09T04:29:58.150Z,10.70
2022-11-09T04:32:27.588Z,10.70
2022-11-09T04:34:55.708Z,10.70
2022-11-09T04:37:23.826Z,10.70
2022-11-09T04:39:51.916Z,10.70
2022-11-09T04:42:19.991Z,10.70
2022-11-09T04:44:48.083Z,10.70
2022-11-09T04:47:16.215Z,10.70
2022-11-09T04:49:45.682Z,10.70
2022-11-09T04:52:13.811Z,10.70
2022-11-09T04:54:41.937Z,10.80
2022-11-09T04:57:10.019Z,10.80
2022-11-09T04:59:38.104Z,10.80
2022-11-09T05:02:06.179Z,10.80
2022-11-09T05:04:34.304Z,10.80
2022-11-09T05:07:03.778Z,10.80
2022-11-09T05:09:31.911Z,10.90
2022-11-09T05:12:00.110Z,10.90
2022-11-09T05:14:28.214Z,10.90
2022-11-09T05:16:56.340Z,10.90
2022-11-09T05:19:24.482Z,10.90
2022-11-09T05:21:52.584Z,10.90
2022-11-09T05:24:21.073Z,10.90
2022-11-09T05:26:50.076Z,10.90
2022-11-09T05:29:18.215Z,11.00
2022-11-09T05:31:52.011Z,11.00
2022-11-09T05:34:20.487Z,11.00
2022-11-09T05:36:48.592Z,11.00
2022-11-09T05:39:16.674Z,11.10
2022-11-09T05:41:46.162Z,11.10
2022-11-09T05:44:14.220Z,11.10
2022-11-09T05:46:42.334Z,11.10
2022-11-09T05:49:10.665Z,11.10
2022-11-09T05:51:38.772Z,11.10
2022-11-09T05:54:06.952Z,11.20
2022-11-09T05:56:35.118Z,11.10
2022-11-09T05:59:04.577Z,11.10
2022-11-09T06:01:32.819Z,11.10
2022-11-09T06:04:00.964Z,11.00
2022-11-09T06:06:29.874Z,11.00
2022-11-09T06:08:57.982Z,11.00
2022-11-09T06:11:26.113Z,11.10
2022-11-09T06:13:54.420Z,11.10
2022-11-09T06:16:24.668Z,11.10
2022-11-09T06:18:52.776Z,11.10
2022-11-09T06:21:20.854Z,11.20
2022-11-09T06:23:49.276Z,11.20
2022-11-09T06:26:17.442Z,11.20
2022-11-09T06:28:45.581Z,11.30
2022-11-09T06:31:17.129Z,11.30
2022-11-09T06:33:46.601Z,11.30
2022-11-09T06:36:14.874Z,11.30
2022-11-09T06:38:43.181Z,11.30
2022-11-09T06:41:11.603Z,11.30
2022-11-09T06:43:41.186Z,11.30
2022-11-09T06:46:10.805Z,11.30
2022-11-09T06:48:39.215Z,11.30
2022-11-09T06:51:08.750Z,11.30
2022-11-09T06:53:37.873Z,11.30
2022-11-09T06:56:07.628Z,11.30
2022-11-09T06:58:35.920Z,11.40
2022-11-09T07:01:09.555Z,11.30
2022-11-09T07:03:38.682Z,11.40
2022-11-09T07:06:10.723Z,11.40
2022-11-09T07:08:39.319Z,11.40
2022-11-09T07:11:09.254Z,11.40
2022-11-09T07:13:37.450Z,11.40
2022-11-09T07:16:06.263Z,11.50
2022-11-09T07:18:35.078Z,11.50
2022-11-09T07:21:11.438Z,11.50
2022-11-09T07:23:43.996Z,11.50
2022-11-09T07:26:12.210Z,11.60
2022-11-09T07:28:40.685Z,11.60
2022-11-09T07:31:09.390Z,11.60
2022-11-09T07:33:37.783Z,11.70
2022-11-09T07:36:07.777Z,11.70
2022-11-09T07:38:35.909Z,11.70
2022-11-09T07:41:05.473Z,11.70
2022-11-09T07:43:33.672Z,11.70
2022-11-09T07:46:06.196Z,11.70
2022-11-09T07:48:34.432Z,11.70
2022-11-09T07:51:02.994Z,11.70
2022-11-09T07:53:31.214Z,11.70
2022-11-09T07:56:00.006Z,11.80
2022-11-09T07:58:29.902Z,11.80
2022-11-09T08:00:59.196Z,11.80
2022-11-09T08:03:27.502Z,11.80
2022-11-09T08:05:57.988Z,11.90
2022-11-09T08:08:26.181Z,11.90
2022-11-09T08:10:54.461Z,12.00
2022-11-09T08:13:22.964Z,12.10
2022-11-09T08:15:53.159Z,12.10
2022-11-09T08:18:23.741Z,12.20
2022-11-09T08:20:52.181Z,12.20
2022-11-09T08:23:21.824Z,12.30
2022-11-09T08:25:50.950Z,12.40
2022-11-09T08:28:19.733Z,12.40
2022-11-09T08:30:58.558Z,12.50
2022-11-09T08:33:27.470Z,12.50
2022-11-09T08:35:55.992Z,12.50
2022-11-09T08:38:24.529Z,12.50
2022-11-09T08:40:58.570Z,12.60
2022-11-09T08:43:27.480Z,12.60
2022-11-09T08:45:56.968Z,12.60
2022-11-09T08:48:25.119Z,12.60
2022-11-09T08:50:54.897Z,12.70
2022-11-09T08:53:23.480Z,12.70
2022-11-09T08:55:52.086Z,12.70
2022-11-09T08:58:21.337Z,12.70
2022-11-09T09:00:49.954Z,12.70
2022-11-09T09:03:19.579Z,12.80
2022-11-09T09:05:47.676Z,12.80
2022-11-09T09:08:16.319Z,12.90
2022-11-09T09:10:44.469Z,13.00
2022-11-09T09:13:12.653Z,13.00
2022-11-09T09:15:41.000Z,13.10
2022-11-09T09:18:09.099Z,13.20
2022-11-09T09:20:38.635Z,13.30
2022-11-09T09:23:06.888Z,13.40
2022-11-09T09:25:35.010Z,13.50
2022-11-09T09:28:03.133Z,13.60
2022-11-09T09:30:31.284Z,13.60
2022-11-09T09:33:01.026Z,13.70
2022-11-09T09:35:29.967Z,13.70
2022-11-09T09:37:59.835Z,13.70
2022-11-09T09:40:36.482Z,13.60
2022-11-09T09:43:05.118Z,13.60
2022-11-09T09:45:36.879Z,13.70
2022-11-09T09:48:17.466Z,13.90
2022-11-09T09:50:49.479Z,14.00
2022-11-09T09:53:35.402Z,14.10
2022-11-09T09:56:23.060Z,14.20
2022-11-09T09:58:57.785Z,14.30
2022-11-09T10:01:36.496Z,14.60
2022-11-09T10:04:04.641Z,14.80
2022-11-09T10:06:47.882Z,15.00
2022-11-09T10:09:30.890Z,15.10
2022-11-09T10:12:12.183Z,15.20
2022-11-09T10:15:14.800Z,15.70
2022-11-09T10:17:56.455Z,16.00
2022-11-09T10:20:41.808Z,16.10
2022-11-09T10:23:45.018Z,16.00
2022-11-09T10:26:20.297Z,15.90
2022-11-09T10:29:15.003Z,15.80
2022-11-09T10:31:45.290Z,16.00
2022-11-09T10:34:20.382Z,16.00
2022-11-09T10:36:59.660Z,16.10
2022-11-09T10:39:39.023Z,16.20
2022-11-09T10:42:27.395Z,16.20
2022-11-09T10:45:18.956Z,16.20
2022-11-09T10:48:08.030Z,16.10
2022-11-09T10:50:54.891Z,16.10
2022-11-09T10:53:41.249Z,16.20
2022-11-09T10:56:33.035Z,16.30
2022-11-09T10:59:52.494Z,16.50
2022-11-09T11:02:49.974Z,17.00
2022-11-09T11:05:37.382Z,17.30
2022-11-09T11:08:33.392Z,17.40
2022-11-09T11:11:33.690Z,17.30
2022-11-09T11:14:26.901Z,17.20
2022-11-09T11:17:25.901Z,17.20
2022-11-09T11:20:29.578Z,17.10
2022-11-09T11:23:19.320Z,17.20
2022-11-09T11:26:27.786Z,17.30
2022-11-09T11:29:34.955Z,17.40
2022-11-09T11:32:24.619Z,17.60
2022-11-09T11:35:16.537Z,17.70
2022-11-09T11:38:21.893Z,17.80
2022-11-09T11:41:39.226Z,17.70
2022-11-09T11:44:41.790Z,17.60
2022-11-09T11:47:40.464Z,17.30
2022-11-09T11:50:36.046Z,17.20
2022-11-09T11:53:47.024Z,17.10
2022-11-09T11:56:37.646Z,17.10
2022-11-09T11:59:51.977Z,17.20
2022-11-09T12:03:52.825Z,16.80
2022-11-09T12:06:58.075Z,16.70
2022-11-09T12:10:16.090Z,16.60
2022-11-09T12:13:13.966Z,16.40
2022-11-09T12:16:07.638Z,16.40
2022-11-09T12:19:20.460Z,16.40
2022-11-09T12:22:18.096Z,16.40
2022-11-09T12:25:15.680Z,16.40
2022-11-09T12:28:19.664Z,16.50
2022-11-09T12:31:15.042Z,16.60
2022-11-09T12:34:07.755Z,16.60
2022-11-09T12:36:58.391Z,16.70
2022-11-09T12:39:49.182Z,16.70
2022-11-09T12:42:42.865Z,16.70
2022-11-09T12:45:34.033Z,16.70
2022-11-09T12:48:25.750Z,16.60
2022-11-09T12:51:13.769Z,16.60
2022-11-09T12:54:02.397Z,16.60
2022-11-09T12:56:57.102Z,16.70
2022-11-09T12:59:51.175Z,16.60
2022-11-09T13:02:43.072Z,16.50
2022-11-09T13:05:32.786Z,16.60
2022-11-09T13:08:26.171Z,16.60
2022-11-09T13:11:37.063Z,16.60
2022-11-09T13:14:38.732Z,16.60
2022-11-09T13:17:59.834Z,16.70
2022-11-09T13:20:55.429Z,16.80
2022-11-09T13:24:03.610Z,16.90
2022-11-09T13:27:00.833Z,16.80
2022-11-09T13:29:56.316Z,16.80
2022-11-09T13:33:26.020Z,16.80
2022-11-09T13:36:19.482Z,16.70
2022-11-09T13:39:33.003Z,16.60
2022-11-09T13:42:31.023Z,16.60
2022-11-09T13:45:30.163Z,16.50
2022-11-09T13:48:41.149Z,16.50
2022-11-09T13:51:45.252Z,16.50
2022-11-09T13:54:35.695Z,16.40
2022-11-09T13:57:24.911Z,16.40
2022-11-09T14:00:23.086Z,16.30
2022-11-09T14:03:22.339Z,16.30
2022-11-09T14:06:14.302Z,16.40
2022-11-09T14:09:02.217Z,16.30
2022-11-09T14:12:16.909Z,16.30
2022-11-09T14:15:23.366Z,16.30
2022-11-09T14:18:27.681Z,16.30
2022-11-09T14:21:28.911Z,16.30
2022-11-09T14:24:21.023Z,16.20
2022-11-09T14:27:21.317Z,16.20
2022-11-09T14:30:21.401Z,16.20
2022-11-09T14:33:27.548Z,16.10
2022-11-09T14:36:14.983Z,16.00
2022-11-09T14:39:05.204Z,16.00
2022-11-09T14:41:52.631Z,15.90
2022-11-09T14:44:45.467Z,15.80
2022-11-09T14:47:35.699Z,15.80
2022-11-09T14:50:26.223Z,15.70
2022-11-09T14:53:18.976Z,15.70
2022-11-09T14:56:08.164Z,15.70
2022-11-09T14:58:55.666Z,15.60
2022-11-09T15:01:59.083Z,15.70
2022-11-09T15:05:00.043Z,15.60
2022-11-09T15:07:48.063Z,15.50
2022-11-09T15:10:35.766Z,15.50
2022-11-09T15:13:34.178Z,15.50
2022-11-09T15:16:23.961Z,15.40
2022-11-09T15:19:29.831Z,15.40
2022-11-09T15:22:51.973Z,15.40
2022-11-09T15:25:56.038Z,15.40
2022-11-09T15:28:47.539Z,15.30
2022-11-09T15:31:34.243Z,15.30
2022-11-09T15:34:26.712Z,15.30
2022-11-09T15:37:47.288Z,15.30
2022-11-09T15:40:34.100Z,15.20
2022-11-09T15:43:20.899Z,15.10
2022-11-09T15:46:07.919Z,15.10
2022-11-09T15:48:54.889Z,15.00
2022-11-09T15:51:43.648Z,14.90
2022-11-09T15:54:32.170Z,14.90
2022-11-09T15:57:21.676Z,14.90
2022-11-09T16:00:19.672Z,14.70
2022-11-09T16:03:08.517Z,14.70
2022-11-09T16:05:55.045Z,14.60
2022-11-09T16:08:42.818Z,14.50
2022-11-09T16:11:29.749Z,14.50
2022-11-09T16:14:17.747Z,14.40
2022-11-09T16:17:04.414Z,14.30
2022-11-09T16:19:53.187Z,14.30
2022-11-09T16:22:39.597Z,14.30
2022-11-09T16:25:27.813Z,14.30
2022-11-09T16:28:14.907Z,14.30
2022-11-09T16:31:02.015Z,14.30
2022-11-09T16:33:48.513Z,14.20
2022-11-09T16:36:37.209Z,14.20
2022-11-09T16:39:23.851Z,14.20
2022-11-09T16:42:14.639Z,14.20
2022-11-09T16:45:09.025Z,14.20
2022-11-09T16:47:57.725Z,14.20
2022-11-09T16:50:44.804Z,14.10
2022-11-09T16:53:31.574Z,14.20
2022-11-09T16:56:18.234Z,14.10
2022-11-09T16:59:06.183Z,14.10
2022-11-09T17:01:54.187Z,14.10
2022-11-09T17:04:41.592Z,14.00
2022-11-09T17:07:29.086Z,14.00
2022-11-09T17:10:16.519Z,14.00
2022-11-09T17:13:03.351Z,14.00
2022-11-09T17:15:53.342Z,14.00
2022-11-09T17:18:42.069Z,14.00
2022-11-09T17:21:30.466Z,14.00
2022-11-09T17:24:17.762Z,14.00
2022-11-09T17:27:04.346Z,14.00
2022-11-09T17:29:50.931Z,14.00
2022-11-09T17:32:38.794Z,13.90
2022-11-09T17:35:25.600Z,13.90
2022-11-09T17:38:12.135Z,13.90
2022-11-09T17:41:04.323Z,13.90
2022-11-09T17:43:50.949Z,13.80
2022-11-09T17:46:37.511Z,13.80
2022-11-09T17:49:25.738Z,13.80
2022-11-09T17:52:12.238Z,13.80
2022-11-09T17:54:58.874Z,13.80
2022-11-09T17:57:45.542Z,13.80
2022-11-09T18:00:32.691Z,13.80
2022-11-09T18:03:20.547Z,13.80
2022-11-09T18:06:14.335Z,13.80
2022-11-09T18:09:34.326Z,13.80
2022-11-09T18:12:08.446Z,13.80
2022-11-09T18:14:55.363Z,13.70
2022-11-09T18:17:42.139Z,13.70
2022-11-09T18:20:28.842Z,13.70
2022-11-09T18:23:16.836Z,13.70
2022-11-09T18:26:04.357Z,13.70
2022-11-09T18:28:51.119Z,13.60
2022-11-09T18:31:37.959Z,13.60
2022-11-09T18:34:24.782Z,13.60
2022-11-09T18:37:11.306Z,13.60
2022-11-09T18:39:59.283Z,13.60
2022-11-09T18:42:45.745Z,13.50
2022-11-09T18:45:34.573Z,13.50
2022-11-09T18:48:21.951Z,13.50
2022-11-09T18:51:11.081Z,13.60
2022-11-09T18:53:57.727Z,13.50
2022-11-09T18:56:46.086Z,13.50
2022-11-09T18:59:33.972Z,13.50
2022-11-09T19:02:21.389Z,13.40
2022-11-09T19:05:09.277Z,13.50
2022-11-09T19:07:55.777Z,13.40
2022-11-09T19:10:42.365Z,13.40
2022-11-09T19:13:30.572Z,13.40
2022-11-09T19:16:18.606Z,13.30
2022-11-09T19:19:06.506Z,13.30
2022-11-09T19:21:55.783Z,13.30
2022-11-09T19:24:42.507Z,13.40
2022-11-09T19:27:30.353Z,13.40
2022-11-09T19:30:18.753Z,13.30
2022-11-09T19:33:06.696Z,13.40
2022-11-09T19:36:23.453Z,13.40
2022-11-09T19:39:01.104Z,13.40
2022-11-09T19:41:48.668Z,13.40
2022-11-09T19:44:35.382Z,13.40
2022-11-09T19:47:23.713Z,13.40
2022-11-09T19:50:10.824Z,13.30
2022-11-09T19:52:57.441Z,13.30
2022-11-09T19:55:44.224Z,13.30
2022-11-09T19:58:31.323Z,13.30
2022-11-09T20:01:19.068Z,13.30
2022-11-09T20:04:10.249Z,13.30
2022-11-09T20:06:57.394Z,13.30
2022-11-09T20:09:44.413Z,13.30
2022-11-09T20:12:48.908Z,13.30
2022-11-09T20:15:36.291Z,13.20
2022-11-09T20:18:23.873Z,13.10
2022-11-09T20:21:11.965Z,13.20
2022-11-09T20:23:59.384Z,13.10
2022-11-09T20:26:46.247Z,13.10
2022-11-09T20:29:33.058Z,13.20
2022-11-09T20:32:21.683Z,13.20
2022-11-09T20:35:10.084Z,13.20
2022-11-09T20:37:58.175Z,13.10
2022-11-09T20:40:45.012Z,13.10
2022-11-09T20:43:32.044Z,13.10
2022-11-09T20:46:22.304Z,13.10
2022-11-09T20:49:09.117Z,13.10
2022-11-09T20:51:56.071Z,13.10
2022-11-09T20:54:43.970Z,13.10
2022-11-09T20:57:30.825Z,13.10
2022-11-09T21:00:24.019Z,13.10
2022-11-09T21:03:11.152Z,13.10
2022-11-09T21:05:59.272Z,13.00
2022-11-09T21:08:47.156Z,13.00
2022-11-09T21:11:57.935Z,13.00
2022-11-09T21:14:44.643Z,13.00
2022-11-09T21:17:31.135Z,13.00
2022-11-09T21:20:18.617Z,13.00
2022-11-09T21:23:23.234Z,13.00
2022-11-09T21:26:28.067Z,13.00
2022-11-09T21:29:36.058Z,13.00
2022-11-09T21:32:24.302Z,13.00
2022-11-09T21:35:11.189Z,13.00
2022-11-09T21:37:58.030Z,13.00
2022-11-09T21:40:44.472Z,12.90
2022-11-09T21:43:31.304Z,12.90
2022-11-09T21:46:19.201Z,12.90
2022-11-09T21:49:06.681Z,12.80
2022-11-09T21:51:53.730Z,12.80
2022-11-09T21:54:40.558Z,12.70
2022-11-09T21:57:27.360Z,12.70
2022-11-09T22:00:16.556Z,12.70
2022-11-09T22:03:05.222Z,12.70
2022-11-09T22:05:51.751Z,12.60
2022-11-09T22:08:38.666Z,12.60
2022-11-09T22:11:41.347Z,12.60
2022-11-09T22:14:46.030Z,12.60
2022-11-09T22:17:32.816Z,12.60
2022-11-09T22:20:38.389Z,12.60
2022-11-09T22:23:26.377Z,12.50
2022-11-09T22:26:13.379Z,12.50
2022-11-09T22:29:00.338Z,12.50
2022-11-09T22:31:47.766Z,12.50
2022-11-09T22:34:34.333Z,12.50
2022-11-09T22:37:22.074Z,12.40
2022-11-09T22:40:10.623Z,12.40
2022-11-09T22:42:57.530Z,12.40
2022-11-09T22:45:44.924Z,12.40
2022-11-09T22:48:32.424Z,12.40
2022-11-09T22:51:20.370Z,12.40
2022-11-09T22:54:09.015Z,12.40
2022-11-09T22:56:55.574Z,12.40
2022-11-09T22:59:42.768Z,12.40
2022-11-09T23:02:30.089Z,12.30
2022-11-09T23:05:17.126Z,12.30
2022-11-09T23:08:03.931Z,12.30
2022-11-09T23:10:56.674Z,12.30
2022-11-09T23:13:44.126Z,12.30
2022-11-09T23:16:31.084Z,12.30
2022-11-09T23:19:16.906Z,12.20
2022-11-09T23:22:03.695Z,12.20
2022-11-09T23:25:07.616Z,12.10
2022-11-09T23:27:56.240Z,12.10
2022-11-09T23:30:42.784Z,12.10
2022-11-09T23:33:30.615Z,12.10
2022-11-09T23:36:17.294Z,12.10
2022-11-09T23:39:03.835Z,12.10
2022-11-09T23:41:50.504Z,12.10
2022-11-09T23:44:38.516Z,12.10
2022-11-09T23:47:25.395Z,12.10
2022-11-09T23:50:12.035Z,12.20
2022-11-09T23:52:59.916Z,12.10
2022-11-09T23:55:46.738Z,12.10
2022-11-09T23:58:34.355Z,12.10
